Time;durP1;ratioP1;P1;durP2;ratioP2;P2;SDS_P1;SDS_P2;PMS_P1;PMS_P2;Temp;Humidity;BMP_temperature;BMP_pressure;BME280_temperature;BME280_humidity;BME280_pressure;Samples;Min_cycle;Max_cycle;Signal;HPM_P1;HPM_P2
2023/03/28 00:04:40;;;;;;;10.27;5.07;;;1.00;99.90;;;;;;10472251;28;20196;-78
2023/03/28 00:10:21;;;;;;;12.10;5.80;;;1.10;99.90;;;;;;10465009;28;20511;-77
2023/03/28 00:15:42;;;;;;;10.50;5.87;;;1.10;99.90;;;;;;10435798;28;20220;-78
2023/03/28 00:21:16;;;;;;;12.40;6.07;;;1.20;99.90;;;;;;10443657;28;20242;-78
2023/03/28 00:26:37;;;;;;;12.33;5.40;;;1.20;99.90;;;;;;10481435;28;20196;-77
2023/03/28 00:31:58;;;;;;;7.83;4.70;;;1.20;99.90;;;;;;10481196;28;20215;-78
2023/03/28 00:37:19;;;;;;;11.13;5.37;;;1.30;99.90;;;;;;10440061;28;20232;-78
2023/03/28 00:42:42;;;;;;;9.07;5.70;;;1.40;99.90;;;;;;10397413;28;20229;-74
2023/03/28 00:48:10;;;;;;;9.23;4.90;;;1.30;99.90;;;;;;10398033;28;20464;-75
2023/03/28 00:53:32;;;;;;;8.37;5.10;;;1.40;99.90;;;;;;10471238;28;20271;-74
2023/03/28 00:58:54;;;;;;;10.47;5.77;;;1.40;99.90;;;;;;10479797;28;20215;-75
2023/03/28 01:04:21;;;;;;;12.17;5.70;;;1.50;99.90;;;;;;10470192;28;20273;-75
2023/03/28 01:09:44;;;;;;;10.77;5.97;;;1.50;99.90;;;;;;10467625;28;20199;-77
2023/03/28 01:15:07;;;;;;;17.33;7.33;;;1.50;99.90;;;;;;10422643;28;20358;-74
2023/03/28 01:20:51;;;;;;;17.43;6.80;;;1.50;99.90;;;;;;10413104;28;20211;-74
2023/03/28 01:26:42;;;;;;;10.27;4.93;;;1.50;99.90;;;;;;10476622;28;20234;-75
2023/03/28 01:32:35;;;;;;;8.87;4.53;;;1.60;99.90;;;;;;10477747;28;20219;-75
2023/03/28 01:38:02;;;;;;;8.80;4.67;;;1.70;99.90;;;;;;10425868;28;20523;-74
2023/03/28 01:43:59;;;;;;;77.83;30.77;;;1.70;99.90;;;;;;10433298;28;20227;-78
2023/03/28 01:49:33;;;;;;;29.57;15.33;;;1.50;99.90;;;;;;10456413;28;20295;-76
2023/03/28 01:55:10;;;;;;;19.40;9.67;;;1.40;99.90;;;;;;10463280;28;20209;-73
2023/03/28 02:00:46;;;;;;;20.63;9.43;;;1.30;99.90;;;;;;10476543;28;20196;-74
2023/03/28 02:06:12;;;;;;;15.80;8.63;;;1.10;99.90;;;;;;10467304;28;20203;-75
2023/03/28 02:11:36;;;;;;;14.67;9.10;;;1.10;99.90;;;;;;10449257;28;20272;-75
2023/03/28 02:17:14;;;;;;;14.50;7.90;;;0.90;99.90;;;;;;10422817;28;20247;-76
2023/03/28 02:23:14;;;;;;;14.67;7.77;;;0.70;99.90;;;;;;10394837;28;20281;-77
2023/03/28 02:28:44;;;;;;;12.13;7.33;;;0.70;99.90;;;;;;10393431;28;20487;-77
2023/03/28 02:34:22;;;;;;;18.30;9.07;;;0.50;99.90;;;;;;10413578;28;20358;-75
2023/03/28 02:40:31;;;;;;;14.00;7.70;;;0.60;99.90;;;;;;10434490;28;20541;-75
2023/03/28 02:45:59;;;;;;;20.53;10.17;;;;;;;;;;10420378;28;20291;-75
2023/03/28 02:51:30;;;;;;;17.47;8.90;;;0.40;99.90;;;;;;10469923;28;20241;-77
2023/03/28 02:57:00;;;;;;;10.90;5.97;;;;;;;;;;10456328;28;20231;-77
2023/03/28 03:02:33;;;;;;;9.00;5.47;;;;;;;;;;10393052;28;20240;-74
2023/03/28 03:07:55;;;;;;;8.47;5.27;;;0.30;99.90;;;;;;10379577;28;20271;-74
2023/03/28 03:13:16;;;;;;;7.20;4.23;;;0.30;99.90;;;;;;10406296;28;20242;-75
2023/03/28 03:18:37;;;;;;;8.70;4.57;;;0.30;99.90;;;;;;10418467;28;20220;-74
2023/03/28 03:23:59;;;;;;;8.03;4.13;;;0.20;99.90;;;;;;10393779;28;20189;-75
2023/03/28 03:29:20;;;;;;;4.77;3.03;;;0.10;99.90;;;;;;10458262;28;20204;-75
2023/03/28 03:34:42;;;;;;;5.60;3.90;;;0.10;99.90;;;;;;10468184;28;20408;-74
2023/03/28 03:40:04;;;;;;;8.10;5.83;;;;;;;;;;10469599;28;20574;-74
2023/03/28 03:45:29;;;;;;;11.90;7.47;;;-0.10;99.90;;;;;;10469433;28;20279;-74
2023/03/28 03:50:51;;;;;;;39.87;18.67;;;-0.10;99.90;;;;;;10482842;28;20192;-76
2023/03/28 03:56:12;;;;;;;7.20;5.13;;;-0.20;99.90;;;;;;10471728;28;20276;-74
2023/03/28 04:01:48;;;;;;;7.50;5.33;;;;;;;;;;10481243;28;20354;-76
2023/03/28 04:07:33;;;;;;;1.53;1.43;;;;;;;;;;10470029;28;20195;-75
2023/03/28 04:12:56;;;;;;;9.70;4.83;;;0.20;99.90;;;;;;10465680;28;20390;-75
2023/03/28 04:18:19;;;;;;;5.10;2.07;;;0.00;99.90;;;;;;10434893;28;20587;-75
2023/03/28 04:23:47;;;;;;;5.23;3.00;;;-0.10;99.90;;;;;;10398314;28;20189;-75
2023/03/28 04:29:24;;;;;;;12.10;6.90;;;-0.20;99.90;;;;;;10383922;28;20231;-74
2023/03/28 04:35:05;;;;;;;8.20;2.93;;;;;;;;;;10479999;28;20312;-76
2023/03/28 04:40:28;;;;;;;10.30;5.73;;;;;;;;;;10478843;28;20256;-74
2023/03/28 04:46:10;;;;;;;9.20;3.63;;;;;;;;;;10470475;28;20209;-77
2023/03/28 04:51:31;;;;;;;5.20;3.13;;;;;;;;;;10465047;28;20206;-77
2023/03/28 04:56:53;;;;;;;10.60;6.00;;;;;;;;;;10478908;28;20230;-77
2023/03/28 05:02:23;;;;;;;12.20;5.80;;;;;;;;;;10469720;28;20306;-74
2023/03/28 05:07:53;;;;;;;8.23;3.87;;;;;;;;;;10478531;28;20202;-75
2023/03/28 05:13:15;;;;;;;4.43;2.90;;;;;;;;;;10437410;28;20200;-74
2023/03/28 05:18:46;;;;;;;7.50;2.87;;;;;;;;;;10405099;28;20398;-77
2023/03/28 05:24:11;;;;;;;4.30;2.93;;;;;;;;;;10395949;28;20232;-79
2023/03/28 05:29:32;;;;;;;5.00;2.87;;;;;;;;;;10405145;28;20392;-77
2023/03/28 05:34:54;;;;;;;8.47;4.10;;;;;;;;;;10463218;28;20205;-76
2023/03/28 05:40:20;;;;;;;3.20;2.03;;;;;;;;;;10464145;28;20193;-78
2023/03/28 05:45:43;;;;;;;7.17;2.70;;;;;;;;;;10467840;28;20265;-78
2023/03/28 05:51:11;;;;;;;7.67;3.17;;;;;;;;;;10462211;28;20465;-76
2023/03/28 05:56:34;;;;;;;19.40;10.50;;;;;;;;;;10476679;28;20232;-77
2023/03/28 06:01:56;;;;;;;3.77;2.47;;;;;;;;;;10451367;28;20555;-74
2023/03/28 06:07:18;;;;;;;9.07;3.63;;;;;;;;;;10476454;28;20273;-75
2023/03/28 06:12:41;;;;;;;13.00;7.70;;;;;;;;;;10440001;28;20465;-75
2023/03/28 06:18:03;;;;;;;14.07;7.80;;;;;;;;;;10420525;28;20242;-75
2023/03/28 06:23:26;;;;;;;7.07;3.40;;;;;;;;;;10394184;28;20215;-76
2023/03/28 06:28:48;;;;;;;8.23;3.43;;;;;;;;;;10400704;28;20450;-75
2023/03/28 06:34:13;;;;;;;10.17;4.90;;;;;;;;;;10462392;28;20263;-77
2023/03/28 06:39:44;;;;;;;7.57;3.07;;;;;;;;;;10469737;28;20250;-78
2023/03/28 06:45:05;;;;;;;11.93;4.10;;;;;;;;;;10476473;28;20222;-77
2023/03/28 06:50:36;;;;;;;5.60;3.37;;;;;;;;;;10475285;28;20409;-75
2023/03/28 06:56:03;;;;;;;7.03;3.97;;;;;;;;;;10471003;28;20268;-77
2023/03/28 07:01:24;;;;;;;24.73;15.20;;;;;;;;;;10477651;28;20195;-77
2023/03/28 07:07:08;;;;;;;8.17;5.40;;;;;;;;;;10483290;28;20267;-75
2023/03/28 07:12:30;;;;;;;35.40;19.30;;;;;;;;;;10401326;28;20209;-74
2023/03/28 07:17:52;;;;;;;17.17;9.87;;;;;;;;;;10400260;28;20572;-75
2023/03/28 07:23:14;;;;;;;15.87;13.27;;;;;;;;;;10392524;28;20469;-74
2023/03/28 07:28:36;;;;;;;9.40;7.67;;;;;;;;;;10436239;28;20235;-77
2023/03/28 07:33:57;;;;;;;4.93;2.93;;;;;;;;;;10437554;28;20515;-77
2023/03/28 07:39:19;;;;;;;5.67;2.63;;;;;;;;;;10428869;28;20230;-77
2023/03/28 07:44:40;;;;;;;6.30;2.07;;;;;;;;;;10459523;28;20578;-77
2023/03/28 07:50:03;;;;;;;2.70;1.80;;;;;;;;;;10447368;28;20221;-77
2023/03/28 07:55:25;;;;;;;4.50;1.97;;;;;;;;;;10462126;28;20231;-77
2023/03/28 08:00:47;;;;;;;8.83;2.27;;;;;;;;;;10475747;28;20483;-76
2023/03/28 08:06:28;;;;;;;4.07;2.20;;;;;;;;;;10469820;28;20241;-75
2023/03/28 08:11:53;;;;;;;5.67;2.80;;;;;;;;;;10443400;28;20284;-75
2023/03/28 08:17:15;;;;;;;4.33;2.00;;;;;;;;;;10432871;28;20227;-75
2023/03/28 08:22:56;;;;;;;6.27;2.60;;;;;;;;;;10415814;28;20212;-75
2023/03/28 08:28:44;;;;;;;9.40;2.80;;;;;;;;;;10512667;28;20291;-74
2023/03/28 08:34:06;;;;;;;3.93;2.00;;;;;;;;;;10481082;28;20221;-74
2023/03/28 08:39:33;;;;;;;8.60;3.13;;;;;;;;;;10457650;28;20236;-75
2023/03/28 08:45:24;;;;;;;8.63;3.50;;;;;;;;;;10467770;28;20239;-76
2023/03/28 08:50:46;;;;;;;2.87;1.70;;;;;;;;;;10506534;28;20297;-76
2023/03/28 08:56:09;;;;;;;5.43;1.47;;;;;;;;;;10462647;28;20546;-78
2023/03/28 09:01:31;;;;;;;4.23;2.47;;;;;;;;;;10492038;28;20272;-77
2023/03/28 09:06:59;;;;;;;6.13;2.90;;;;;;;;;;10432216;28;20227;-76
2023/03/28 09:12:21;;;;;;;5.50;2.67;;;;;;;;;;10430596;28;20210;-77
2023/03/28 09:17:50;;;;;;;4.80;2.00;;;;;;;;;;10424699;28;20235;-75
2023/03/28 09:23:21;;;;;;;7.53;2.27;;;;;;;;;;10443203;28;20209;-76
2023/03/28 09:29:17;;;;;;;5.83;2.00;;;;;;;;;;10468369;28;20434;-75
2023/03/28 09:34:44;;;;;;;4.10;1.40;;;;;;;;;;10449485;28;20220;-77
2023/03/28 09:40:41;;;;;;;6.50;2.20;;;;;;;;;;10438726;28;20239;-75
2023/03/28 09:46:21;;;;;;;6.80;2.00;;;;;;;;;;10312512;28;20224;-75
2023/03/28 09:51:57;;;;;;;4.50;2.10;;;;;;;;;;10315968;28;20570;-75
2023/03/28 09:57:18;;;;;;;8.43;3.37;;;;;;;;;;10302397;28;20251;-77
2023/03/28 10:02:43;;;;;;;11.50;4.23;;;;;;;;;;10295302;28;20219;-74
2023/03/28 10:08:21;;;;;;;8.30;3.67;;;;;;;;;;10252250;29;20227;-76
2023/03/28 10:13:58;;;;;;;9.30;2.77;;;;;;;;;;10250894;29;20222;-76
2023/03/28 10:19:24;;;;;;;6.37;1.40;;;;;;;;;;10289329;28;20241;-76
2023/03/28 10:25:00;;;;;;;8.37;2.07;;;;;;;;;;10409240;28;20265;-80
2023/03/28 10:30:25;;;;;;;2.77;1.57;;;;;;;;;;10442057;28;20218;-77
2023/03/28 10:35:54;;;;;;;5.77;1.80;;;;;;;;;;10457923;28;20244;-74
2023/03/28 10:41:20;;;;;;;4.60;1.80;;;;;;;;;;10469844;28;20541;-74
2023/03/28 10:47:06;;;;;;;4.33;2.40;;;;;;;;;;10479614;28;20189;-74
2023/03/28 10:52:34;;;;;;;5.50;2.63;;;;;;;;;;10471859;28;20216;-74
2023/03/28 10:57:56;;;;;;;6.43;2.03;;;;;;;;;;10479526;28;20282;-78
2023/03/28 11:03:20;;;;;;;2.90;1.33;;;;;;;;;;10463251;28;20198;-76
2023/03/28 11:09:02;;;;;;;4.77;2.90;;;;;;;;;;10476829;28;20226;-75
2023/03/28 11:14:52;;;;;;;3.97;1.93;;;;;;;;;;10438898;28;20205;-76
2023/03/28 11:20:29;;;;;;;3.17;1.50;;;;;;;;;;10417807;28;20238;-76
2023/03/28 11:26:26;;;;;;;2.87;1.53;;;;;;;;;;10421681;28;20661;-77
2023/03/28 11:32:14;;;;;;;5.60;3.27;;;;;;;;;;10443532;28;20299;-78
2023/03/28 11:37:41;;;;;;;3.50;1.40;;;;;;;;;;10501430;28;20219;-78
2023/03/28 11:43:04;;;;;;;2.40;1.43;;;;;;;;;;10514902;28;20609;-75
2023/03/28 11:48:39;;;;;;;6.87;4.60;;;;;;;;;;10480218;28;20230;-77
2023/03/28 11:54:11;;;;;;;9.87;3.70;;;;;;;;;;10491387;28;20244;-81
2023/03/28 11:59:40;;;;;;;5.63;3.03;;;;;;;;;;10500380;28;20235;-75
2023/03/28 12:05:23;;;;;;;3.30;1.20;;;;;;;;;;10480817;28;20406;-75
2023/03/28 12:10:48;;;;;;;3.83;1.67;;;;;;;;;;10447961;28;20204;-76
2023/03/28 12:16:29;;;;;;;6.97;1.50;;;;;;;;;;10433555;28;20218;-76
2023/03/28 12:21:55;;;;;;;4.57;1.70;;;;;;;;;;10433041;28;20204;-79
2023/03/28 12:27:37;;;;;;;2.87;1.43;;;;;;;;;;10434624;28;20213;-83
2023/03/28 12:33:20;;;;;;;8.53;3.53;;;;;;;;;;10430059;28;20211;-78
2023/03/28 12:38:56;;;;;;;9.20;3.67;;;;;;;;;;10444381;28;20241;-78
2023/03/28 12:44:34;;;;;;;235.63;94.97;;;;;;;;;;10475117;28;20231;-77
2023/03/28 12:49:58;;;;;;;12.17;6.77;;;;;;;;;;10444632;28;20285;-75
2023/03/28 12:55:26;;;;;;;6.10;3.37;;;;;;;;;;10437722;28;20195;-75
2023/03/28 13:00:51;;;;;;;5.90;2.30;;;;;;;;;;10432478;28;20426;-78
2023/03/28 13:06:41;;;;;;;2.77;1.80;;;;;;;;;;10443608;28;20197;-77
2023/03/28 13:12:07;;;;;;;3.50;1.73;;;;;;;;;;10447898;28;20206;-75
2023/03/28 13:17:30;;;;;;;5.03;1.40;;;;;;;;;;10432337;28;20226;-75
2023/03/28 13:22:56;;;;;;;3.43;1.53;;;;;;;;;;10427050;28;20297;-74
2023/03/28 13:28:18;;;;;;;5.27;1.43;;;;;;;;;;10433457;28;20188;-76
2023/03/28 13:34:00;;;;;;;2.77;1.43;;;;;;;;;;10430733;28;20204;-76
2023/03/28 13:39:26;;;;;;;6.97;2.33;;;;;;;;;;10429197;28;20225;-74
2023/03/28 13:44:56;;;;;;;7.20;3.50;;;;;;;;;;10426379;28;20257;-75
2023/03/28 13:50:33;;;;;;;2.63;1.40;;;;;;;;;;10390881;28;20209;-75
2023/03/28 13:56:27;;;;;;;4.87;2.43;;;;;;;;;;10391101;28;20447;-77
2023/03/28 14:01:53;;;;;;;5.43;1.87;;;;;;;;;;10534419;28;20234;-91
2023/03/28 14:07:15;;;;;;;13.27;4.30;;;;;;;;;;10522762;28;20282;-85
2023/03/28 14:12:37;;;;;;;7.17;3.07;;;;;;;;;;10515505;28;20207;-82
2023/03/28 14:17:58;;;;;;;5.37;2.10;;;;;;;;;;10488694;28;20434;-83
2023/03/28 14:23:30;;;;;;;7.87;2.23;;;;;;;;;;10509456;28;20581;-74
2023/03/28 14:28:57;;;;;;;9.03;3.80;;;;;;;;;;10491770;28;20286;-77
2023/03/28 14:34:26;;;;;;;11.27;5.37;;;;;;;;;;10469110;28;20215;-77
2023/03/28 14:39:47;;;;;;;7.33;3.70;;;;;;;;;;10389366;28;20217;-75
2023/03/28 14:45:12;;;;;;;7.67;3.80;;;;;;;;;;10414238;28;20409;-75
2023/03/28 14:50:36;;;;;;;6.37;3.53;;;;;;;;;;10430639;28;20201;-74
2023/03/28 14:55:59;;;;;;;5.10;2.47;;;;;;;;;;10429939;28;20263;-76
2023/03/28 15:01:24;;;;;;;6.70;3.50;;;;;;;;;;10422037;28;20196;-76
2023/03/28 15:06:53;;;;;;;14.67;6.60;;;;;;;;;;10428745;28;20521;-75
2023/03/28 15:12:16;;;;;;;5.37;2.83;;;;;;;;;;10430109;28;20193;-80
2023/03/28 15:17:48;;;;;;;8.43;2.40;;;;;;;;;;10416403;28;20354;-78
2023/03/28 15:23:21;;;;;;;5.50;2.90;;;;;;;;;;10405981;28;20491;-79
2023/03/28 15:28:42;;;;;;;8.50;2.73;;;;;;;;;;10434555;28;20205;-78
2023/03/28 15:34:08;;;;;;;5.00;2.27;;;;;;;;;;10438854;28;20195;-77
2023/03/28 15:39:33;;;;;;;3.37;2.07;;;;;;;;;;10435783;28;20241;-77
2023/03/28 15:44:58;;;;;;;6.57;1.53;;;;;;;;;;10425137;28;20449;-78
2023/03/28 15:50:32;;;;;;;6.73;1.97;;;;;;;;;;10426800;28;20194;-76
2023/03/28 15:55:53;;;;;;;7.23;1.90;;;;;;;;;;10419229;28;20196;-77
2023/03/28 16:01:25;;;;;;;4.37;2.07;;;;;;;;;;10439942;28;20505;-76
2023/03/28 16:07:11;;;;;;;3.70;2.47;;;;;;;;;;10440951;28;20248;-78
2023/03/28 16:12:52;;;;;;;3.20;1.47;;;;;;;;;;10437604;28;20217;-77
2023/03/28 16:19:08;;;;;;;5.47;2.80;;;;;;;;;;10432779;28;20237;-77
2023/03/28 16:24:30;;;;;;;5.20;2.40;;;;;;;;;;10437891;28;20538;-77
2023/03/28 16:29:51;;;;;;;5.23;2.13;;;;;;;;;;10434939;28;20420;-77
2023/03/28 16:35:13;;;;;;;12.87;4.27;;;;;;;;;;10437914;28;20225;-79
2023/03/28 16:40:34;;;;;;;2.73;2.00;;;;;;;;;;10434244;28;20286;-78
2023/03/28 16:45:56;;;;;;;6.23;2.43;;;;;;;;;;10357762;28;20361;-78
2023/03/28 16:51:17;;;;;;;4.87;2.80;;;;;;;;;;10329092;28;20434;-78
2023/03/28 16:56:39;;;;;;;7.53;3.10;;;;;;;;;;10352413;28;20467;-77
2023/03/28 17:02:00;;;;;;;6.03;3.70;;;;;;;;;;10355960;28;20374;-76
2023/03/28 17:07:22;;;;;;;5.50;3.13;;;;;;;;;;10356840;28;20190;-77
2023/03/28 17:12:44;;;;;;;20.17;6.50;;;;;;;;;;10322335;28;20385;-78
2023/03/28 17:18:05;;;;;;;13.17;3.97;;;;;;;;;;10314841;28;20226;-78
2023/03/28 17:23:28;;;;;;;5.23;2.90;;;;;;;;;;10314954;28;20516;-76
2023/03/28 17:28:50;;;;;;;7.67;4.10;;;;;;;;;;10352185;28;20230;-77
2023/03/28 17:34:12;;;;;;;18.60;4.53;;;;;;;;;;10354989;28;20202;-78
2023/03/28 17:39:33;;;;;;;9.97;4.40;;;;;;;;;;10350474;28;20246;-78
2023/03/28 17:44:55;;;;;;;8.97;4.53;;;;;;;;;;10370711;28;20242;-76
2023/03/28 17:50:16;;;;;;;13.17;5.77;;;;;;;;;;10396372;28;20603;-78
2023/03/28 17:55:37;;;;;;;14.67;6.97;;;;;;;;;;10404996;28;20200;-77
2023/03/28 18:00:59;;;;;;;19.00;7.53;;;;;;;;;;10400633;28;20221;-77
2023/03/28 18:06:21;;;;;;;23.00;7.93;;;;;;;;;;10395805;28;20425;-78
2023/03/28 18:11:42;;;;;;;15.87;7.53;;;;;;;;;;10414019;28;20385;-78
2023/03/28 18:17:04;;;;;;;17.77;8.07;;;;;;;;;;10434830;28;20547;-77
2023/03/28 18:22:25;;;;;;;37.67;16.80;;;;;;;;;;10434866;28;20236;-78
2023/03/28 18:27:47;;;;;;;38.90;18.23;;;;;;;;;;10409754;28;20198;-77
2023/03/28 18:33:10;;;;;;;36.53;17.37;;;;;;;;;;10395064;28;20197;-78
2023/03/28 18:38:38;;;;;;;20.07;11.33;;;;;;;;;;10393543;28;20229;-77
2023/03/28 18:44:00;;;;;;;9.57;6.17;;;;;;;;;;10416154;28;20244;-76
2023/03/28 18:49:22;;;;;;;10.53;5.57;;;;;;;;;;10410063;28;20201;-77
2023/03/28 18:54:45;;;;;;;7.27;4.13;;;;;;;;;;10404422;28;20251;-79
2023/03/28 19:00:17;;;;;;;6.27;3.50;;;;;;;;;;10410491;28;20233;-79
2023/03/28 19:05:38;;;;;;;7.10;3.67;;;;;;;;;;10415247;28;20221;-78
2023/03/28 19:11:00;;;;;;;4.60;2.70;;;;;;;;;;10402525;28;20227;-77
2023/03/28 19:16:22;;;;;;;3.23;2.07;;;;;;;;;;10442579;28;20224;-78
2023/03/28 19:21:44;;;;;;;22.10;11.17;;;;;;;;;;10426765;28;20213;-77
2023/03/28 19:27:05;;;;;;;17.90;6.43;;;;;;;;;;10442916;28;20502;-76
2023/03/28 19:32:29;;;;;;;11.67;5.30;;;;;;;;;;10438923;28;20383;-77
2023/03/28 19:37:50;;;;;;;7.37;3.27;;;;;;;;;;10386309;28;20427;-77
2023/03/28 19:43:12;;;;;;;6.17;2.63;;;;;;;;;;10400920;28;20482;-77
2023/03/28 19:48:34;;;;;;;5.80;2.83;;;;;;;;;;10399272;28;20223;-75
2023/03/28 19:53:56;;;;;;;6.93;3.33;;;;;;;;;;10400753;28;20256;-76
2023/03/28 19:59:17;;;;;;;6.30;3.77;;;;;;;;;;10400364;28;20341;-76
2023/03/28 20:04:39;;;;;;;6.67;3.43;;;;;;;;;;10410990;28;20278;-77
2023/03/28 20:10:00;;;;;;;8.67;3.00;;;;;;;;;;10406127;28;20226;-77
2023/03/28 20:15:22;;;;;;;5.77;2.87;;;;;;;;;;10409335;28;20196;-78
2023/03/28 20:20:44;;;;;;;10.00;5.13;;;;;;;;;;10431294;28;20242;-77
2023/03/28 20:26:17;;;;;;;5.13;2.87;;;;;;;;;;10439320;28;20189;-76
2023/03/28 20:31:38;;;;;;;4.97;2.57;;;;;;;;;;10418196;28;20190;-76
2023/03/28 20:37:00;;;;;;;6.50;3.00;;;;;;;;;;10425955;28;20246;-77
2023/03/28 20:42:23;;;;;;;8.73;3.37;;;;;;;;;;10439623;28;20232;-77
2023/03/28 20:47:48;;;;;;;6.27;2.60;;;;;;;;;;10434001;28;20197;-77
2023/03/28 20:53:10;;;;;;;11.93;4.60;;;;;;;;;;10438464;28;20219;-78
2023/03/28 20:58:32;;;;;;;10.97;4.03;;;;;;;;;;10438956;28;20269;-78
2023/03/28 21:03:56;;;;;;;11.13;4.10;;;;;;;;;;10434941;28;20242;-76
2023/03/28 21:09:18;;;;;;;8.07;3.43;;;;;;;;;;10438800;28;20269;-77
2023/03/28 21:14:40;;;;;;;7.43;3.77;;;;;;;;;;10413902;28;20197;-77
2023/03/28 21:20:02;;;;;;;13.07;9.83;;;;;;;;;;10420278;28;20415;-76
2023/03/28 21:25:26;;;;;;;12.53;6.77;;;;;;;;;;10437185;28;20188;-79
2023/03/28 21:31:00;;;;;;;4.63;2.17;;;;;;;;;;10436409;28;20192;-77
2023/03/28 21:36:22;;;;;;;6.67;2.67;;;;;;;;;;10433846;28;20200;-76
2023/03/28 21:41:44;;;;;;;6.77;3.20;;;;;;;;;;10422421;28;20267;-77
2023/03/28 21:47:06;;;;;;;5.97;2.33;;;;;;;;;;10435158;28;20196;-77
2023/03/28 21:52:27;;;;;;;4.17;2.63;;;;;;;;;;10403243;28;20244;-75
2023/03/28 21:57:48;;;;;;;5.73;2.87;;;;;;;;;;10395919;28;20224;-77
2023/03/28 22:03:10;;;;;;;8.57;3.07;;;;;;;;;;10411413;28;20562;-76
2023/03/28 22:08:32;;;;;;;11.00;7.17;;;;;;;;;;10477595;28;20187;-77
2023/03/28 22:14:01;;;;;;;11.20;6.40;;;;;;;;;;10417858;28;20550;-77
2023/03/28 22:19:28;;;;;;;9.40;3.90;;;;;;;;;;10430962;28;20491;-77
2023/03/28 22:24:50;;;;;;;9.07;3.40;;;;;;;;;;10435905;28;20189;-76
2023/03/28 22:30:13;;;;;;;8.30;3.20;;;;;;;;;;10435525;28;20192;-77
2023/03/28 22:35:34;;;;;;;5.33;2.80;;;;;;;;;;10406697;28;20207;-77
2023/03/28 22:40:55;;;;;;;6.97;3.10;;;;;;;;;;10393686;28;20229;-78
2023/03/28 22:46:19;;;;;;;6.60;2.97;;;;;;;;;;10394658;28;20235;-77
2023/03/28 22:51:44;;;;;;;6.53;2.73;;;0.40;99.90;;;;;;10398368;28;20232;-76
2023/03/28 22:57:07;;;;;;;5.67;2.60;;;0.30;99.50;;;;;;10394599;28;20212;-78
2023/03/28 23:02:28;;;;;;;5.27;2.50;;;0.40;99.90;;;;;;10396656;28;20487;-77
2023/03/28 23:07:51;;;;;;;5.60;2.63;;;0.40;99.90;;;;;;10394490;28;20423;-77
2023/03/28 23:13:12;;;;;;;7.47;2.50;;;0.40;99.90;;;;;;10426145;28;20502;-76
2023/03/28 23:18:33;;;;;;;4.67;2.00;;;0.40;99.90;;;;;;10430088;28;20548;-77
2023/03/28 23:23:54;;;;;;;2.10;1.57;;;0.30;99.90;;;;;;10434981;28;20188;-78
2023/03/28 23:29:15;;;;;;;4.67;2.40;;;0.20;99.90;;;;;;10434520;28;20196;-78
2023/03/28 23:34:36;;;;;;;4.27;1.80;;;0.20;99.90;;;;;;10420015;28;20414;-78
2023/03/28 23:39:57;;;;;;;4.23;2.43;;;0.20;99.90;;;;;;10434653;28;20479;-76
2023/03/28 23:45:18;;;;;;;8.93;2.17;;;0.20;99.90;;;;;;10438196;28;20278;-77
2023/03/28 23:50:39;;;;;;;4.67;1.70;;;0.30;99.90;;;;;;10435286;28;20503;-78
2023/03/28 23:56:02;;;;;;;4.33;1.97;;;0.20;99.90;;;;;;10441571;28;20188;-77
